Startpagina
METAR-TAF:

METAR-TAF

Vliegvelden :

Smithers, Brits Columbia, Canada

breedte: 54-49N, lengte: 127-11W, hoogte: 523 m

Actueel weer

Dit bericht is 31 minuten geleden gemaakt, om 19:00 UTC
Wind 8 kt uit het noorden, variërend tussen het westnoordwesten en het noorden
Temperatuur 4°C
Vochtigheid 44%
Druk 1022 hPa
Zicht: 40.2 km
Weinig wolken op 6500 ft

METAR: CYYD 101900Z 36008KT 300V010 25SM FEW065 04/M07 A3018 RMK SC1 SC TR SLP237

Tijdstip: 12:31 (19:31 UTC)

Verwachting

Dit bericht is 53 minuten geleden gemaakt, om 18:38 UTC
Verwachting geldig van 10 om 19 UTC tot 11 om 06 UTC
Wind 8 kt uit het noordnoordwesten
Zicht: 10 km
Verspreide wolken op 6000 ft

TAF: CYYD 101838Z 1019/1106 33008KT P6SM SCT060 RMK NXT FCST BY 110100Z

Waarnemingen en weersverwachtingen van meer dan 4000 vliegvelden (METAR en TAF).

De beschikbare stations zijn de gele en rode punten op de kaart.

Ga met uw muis naar het station om de naam te zien.

Klik dan om waarnemingen en weersverwachtingen te zien.

kaart wijzigen: klik op de groene knoppen met een zwart kruis om in te zoomen, op de groene knop met een streepje om uit te zoomen of op de groene pijlen voor aangrenzende kaarten.


METAR-TAF: